createdAt,value
2023-04-08T00:01:42.796Z,6.40
2023-04-08T00:04:11.056Z,6.50
2023-04-08T00:06:39.175Z,6.40
2023-04-08T00:09:07.216Z,6.40
2023-04-08T00:11:35.941Z,6.30
2023-04-08T00:14:04.842Z,6.40
2023-04-08T00:16:33.508Z,6.40
2023-04-08T00:19:03.020Z,6.50
2023-04-08T00:21:31.613Z,6.50
2023-04-08T00:23:59.757Z,6.50
2023-04-08T00:26:27.984Z,6.50
2023-04-08T00:28:56.003Z,6.50
2023-04-08T00:31:24.164Z,6.50
2023-04-08T00:33:52.404Z,6.40
2023-04-08T00:36:21.847Z,6.40
2023-04-08T00:38:50.189Z,6.30
2023-04-08T00:41:18.619Z,6.30
2023-04-08T00:43:46.656Z,6.30
2023-04-08T00:46:14.695Z,6.20
2023-04-08T00:48:42.827Z,6.30
2023-04-08T00:51:11.150Z,6.30
2023-04-08T00:53:40.630Z,6.40
2023-04-08T00:56:08.675Z,6.40
2023-04-08T00:58:37.071Z,6.40
2023-04-08T01:01:11.693Z,6.40
2023-04-08T01:03:48.105Z,6.40
2023-04-08T01:06:23.494Z,6.40
2023-04-08T01:08:53.993Z,6.40
2023-04-08T01:11:22.522Z,6.50
2023-04-08T01:13:52.405Z,6.50
2023-04-08T01:16:22.029Z,6.50
2023-04-08T01:18:53.008Z,6.50
2023-04-08T01:21:23.184Z,6.50
2023-04-08T01:24:02.200Z,6.50
2023-04-08T01:26:32.597Z,6.50
2023-04-08T01:29:02.999Z,6.50
2023-04-08T01:31:32.931Z,6.50
2023-04-08T01:34:02.868Z,6.50
2023-04-08T01:36:33.225Z,6.50
2023-04-08T01:39:03.074Z,6.40
2023-04-08T01:41:35.122Z,6.50
2023-04-08T01:44:05.107Z,6.50
2023-04-08T01:46:33.740Z,6.60
2023-04-08T01:49:02.255Z,6.60
2023-04-08T01:51:31.887Z,6.60
2023-04-08T01:53:59.989Z,6.60
2023-04-08T01:56:34.112Z,6.60
2023-04-08T01:59:04.873Z,6.60
2023-04-08T02:01:36.398Z,6.60
2023-04-08T02:04:05.469Z,6.50
2023-04-08T02:06:34.372Z,6.50
2023-04-08T02:09:03.140Z,6.60
2023-04-08T02:11:32.593Z,6.60
2023-04-08T02:14:00.608Z,6.60
2023-04-08T02:16:35.105Z,6.60
2023-04-08T02:19:09.340Z,6.60
2023-04-08T02:21:43.387Z,6.60
2023-04-08T02:24:13.876Z,6.50
2023-04-08T02:26:45.097Z,6.60
2023-04-08T02:29:16.128Z,6.60
2023-04-08T02:31:45.073Z,6.60
2023-04-08T02:34:13.741Z,6.60
2023-04-08T02:36:42.951Z,6.60
2023-04-08T02:39:11.307Z,6.70
2023-04-08T02:41:39.343Z,6.70
2023-04-08T02:44:09.414Z,6.70
2023-04-08T02:46:37.455Z,6.70
2023-04-08T02:49:05.670Z,6.70
2023-04-08T02:51:33.643Z,6.70
2023-04-08T02:54:01.618Z,6.80
2023-04-08T02:56:29.627Z,6.70
2023-04-08T02:58:57.635Z,6.70
2023-04-08T03:01:27.210Z,6.70
2023-04-08T03:03:55.307Z,6.70
2023-04-08T03:06:23.378Z,6.70
2023-04-08T03:08:51.758Z,6.70
2023-04-08T03:11:20.005Z,6.70
2023-04-08T03:13:48.004Z,6.70
2023-04-08T03:16:16.343Z,6.70
2023-04-08T03:18:45.765Z,6.70
2023-04-08T03:21:13.776Z,6.70
2023-04-08T03:23:41.809Z,6.70
2023-04-08T03:26:09.816Z,6.70
2023-04-08T03:28:37.918Z,6.70
2023-04-08T03:31:06.435Z,6.80
2023-04-08T03:33:34.517Z,6.80
2023-04-08T03:36:03.987Z,6.80
2023-04-08T03:38:32.068Z,6.80
2023-04-08T03:41:00.136Z,6.70
2023-04-08T03:43:28.206Z,6.70
2023-04-08T03:45:57.336Z,6.70
2023-04-08T03:48:25.468Z,6.70
2023-04-08T03:50:53.666Z,6.70
2023-04-08T03:53:23.118Z,6.70
2023-04-08T03:55:51.771Z,6.70
2023-04-08T03:58:19.943Z,6.70
2023-04-08T04:00:48.124Z,6.70
2023-04-08T04:03:16.470Z,6.70
2023-04-08T04:05:44.620Z,6.80
2023-04-08T04:08:12.809Z,6.70
2023-04-08T04:10:42.345Z,6.80
2023-04-08T04:13:10.505Z,6.80
2023-04-08T04:15:40.160Z,6.80
2023-04-08T04:18:08.409Z,6.80
2023-04-08T04:20:38.276Z,6.90
2023-04-08T04:23:06.410Z,6.90
2023-04-08T04:25:34.681Z,6.90
2023-04-08T04:28:04.298Z,6.90
2023-04-08T04:30:32.482Z,6.90
2023-04-08T04:33:00.629Z,6.90
2023-04-08T04:35:28.906Z,6.90
2023-04-08T04:37:57.580Z,6.80
2023-04-08T04:40:25.704Z,6.90
2023-04-08T04:42:53.844Z,6.90
2023-04-08T04:45:23.383Z,6.90
2023-04-08T04:47:51.528Z,6.90
2023-04-08T04:50:19.955Z,6.90
2023-04-08T04:52:48.135Z,6.90
2023-04-08T04:55:16.635Z,7.00
2023-04-08T04:57:44.839Z,7.00
2023-04-08T05:00:13.644Z,7.00
2023-04-08T05:02:43.226Z,7.00
2023-04-08T05:05:11.803Z,7.10
2023-04-08T05:07:40.091Z,7.10
2023-04-08T05:10:08.994Z,7.10
2023-04-08T05:12:38.757Z,7.10
2023-04-08T05:15:08.187Z,7.10
2023-04-08T05:17:36.636Z,7.10
2023-04-08T05:20:07.047Z,7.10
2023-04-08T05:22:35.544Z,7.00
2023-04-08T05:25:07.899Z,7.00
2023-04-08T05:27:36.289Z,7.00
2023-04-08T05:30:04.868Z,7.10
2023-04-08T05:32:33.022Z,7.10
2023-04-08T05:35:05.459Z,7.10
2023-04-08T05:37:33.486Z,7.20
2023-04-08T05:40:01.652Z,7.20
2023-04-08T05:42:29.640Z,7.30
2023-04-08T05:44:57.785Z,7.20
2023-04-08T05:47:25.871Z,7.30
2023-04-08T05:49:54.331Z,7.30
2023-04-08T05:52:23.807Z,7.30
2023-04-08T05:54:51.845Z,7.30
2023-04-08T05:57:19.875Z,7.30
2023-04-08T05:59:47.853Z,7.40
2023-04-08T06:02:15.977Z,7.40
2023-04-08T06:04:44.154Z,7.50
2023-04-08T06:07:12.368Z,7.50
2023-04-08T06:09:42.449Z,7.50
2023-04-08T06:12:11.861Z,7.50
2023-04-08T06:14:39.868Z,7.60
2023-04-08T06:17:08.003Z,7.60
2023-04-08T06:19:36.520Z,7.70
2023-04-08T06:22:04.581Z,7.70
2023-04-08T06:24:32.845Z,7.70
2023-04-08T06:27:03.013Z,7.80
2023-04-08T06:29:31.365Z,7.80
2023-04-08T06:31:59.509Z,7.80
2023-04-08T06:34:27.537Z,7.70
2023-04-08T06:36:55.542Z,7.70
2023-04-08T06:39:23.693Z,7.70
2023-04-08T06:41:53.786Z,7.70
2023-04-08T06:44:23.156Z,7.70
2023-04-08T06:46:51.215Z,7.70
2023-04-08T06:49:19.217Z,7.70
2023-04-08T06:51:47.231Z,7.70
2023-04-08T06:54:15.330Z,7.70
2023-04-08T06:56:43.387Z,7.70
2023-04-08T06:59:11.527Z,7.70
2023-04-08T07:01:41.762Z,7.70
2023-04-08T07:04:09.921Z,7.80
2023-04-08T07:06:38.003Z,7.80
2023-04-08T07:09:06.882Z,7.90
2023-04-08T07:11:34.935Z,7.90
2023-04-08T07:14:02.946Z,8.00
2023-04-08T07:16:31.004Z,8.10
2023-04-08T07:19:00.423Z,8.10
2023-04-08T07:21:28.439Z,8.20
2023-04-08T07:23:56.511Z,8.20
2023-04-08T07:26:24.541Z,8.20
2023-04-08T07:28:53.166Z,8.20
2023-04-08T07:31:21.585Z,8.30
2023-04-08T07:33:49.796Z,8.40
2023-04-08T07:36:19.186Z,8.40
2023-04-08T07:38:47.440Z,8.50
2023-04-08T07:41:15.796Z,8.50
2023-04-08T07:43:43.840Z,8.50
2023-04-08T07:46:12.042Z,8.50
2023-04-08T07:48:40.252Z,8.60
2023-04-08T07:51:25.411Z,8.60
2023-04-08T07:53:54.833Z,8.60
2023-04-08T07:56:22.878Z,8.80
2023-04-08T07:58:53.404Z,9.00
2023-04-08T08:01:23.014Z,9.10
2023-04-08T08:03:52.255Z,9.00
2023-04-08T08:06:23.883Z,9.00
2023-04-08T08:08:52.031Z,9.00
2023-04-08T08:11:22.365Z,9.00
2023-04-08T08:13:50.682Z,9.10
2023-04-08T08:16:18.824Z,9.10
2023-04-08T08:18:46.880Z,9.20
2023-04-08T08:21:15.530Z,9.10
2023-04-08T08:23:43.581Z,9.00
2023-04-08T08:26:12.129Z,9.00
2023-04-08T08:28:41.698Z,9.00
2023-04-08T08:31:09.787Z,9.00
2023-04-08T08:33:37.824Z,8.90
2023-04-08T08:36:07.383Z,9.00
2023-04-08T08:38:35.479Z,9.00
2023-04-08T08:41:04.639Z,9.00
2023-04-08T08:43:33.729Z,9.10
2023-04-08T08:46:03.769Z,9.10
2023-04-08T08:48:32.676Z,9.10
2023-04-08T08:51:01.078Z,9.10
2023-04-08T08:53:35.159Z,9.20
2023-04-08T08:58:35.334Z,9.40
2023-04-08T09:01:32.236Z,9.40
2023-04-08T09:04:11.936Z,9.50
2023-04-08T09:06:40.676Z,9.50
2023-04-08T09:09:11.129Z,9.50
2023-04-08T09:11:40.828Z,9.50
2023-04-08T09:14:19.721Z,9.40
2023-04-08T09:16:49.388Z,9.40
2023-04-08T09:19:17.604Z,9.50
2023-04-08T09:21:46.123Z,9.50
2023-04-08T09:24:30.213Z,9.60
2023-04-08T09:26:58.238Z,9.60
2023-04-08T09:29:29.917Z,9.70
2023-04-08T09:32:02.778Z,9.50
2023-04-08T09:34:34.162Z,9.50
2023-04-08T09:37:02.504Z,9.50
2023-04-08T09:39:30.846Z,9.60
2023-04-08T09:42:01.966Z,9.60
2023-04-08T09:44:31.259Z,9.70
2023-04-08T09:47:09.550Z,9.70
2023-04-08T09:49:45.001Z,9.70
2023-04-08T09:52:16.185Z,9.70
2023-04-08T09:54:52.529Z,9.60
2023-04-08T09:57:26.707Z,9.60
2023-04-08T10:00:01.868Z,9.60
2023-04-08T10:02:35.831Z,9.60
2023-04-08T10:05:08.298Z,9.50
2023-04-08T10:07:36.741Z,9.50
2023-04-08T10:10:05.728Z,9.50
2023-04-08T10:12:34.120Z,9.40
2023-04-08T10:15:27.515Z,9.30
2023-04-08T10:17:58.217Z,9.30
2023-04-08T10:20:44.884Z,9.30
2023-04-08T10:23:14.259Z,9.30
2023-04-08T10:25:43.311Z,9.30
2023-04-08T10:28:27.475Z,9.40
2023-04-08T10:30:56.659Z,9.40
2023-04-08T10:33:34.598Z,9.40
2023-04-08T10:36:11.779Z,9.40
2023-04-08T10:38:42.086Z,9.40
2023-04-08T10:41:11.978Z,9.40
2023-04-08T10:43:40.036Z,9.40
2023-04-08T10:46:11.673Z,9.50
2023-04-08T10:48:41.244Z,9.50
2023-04-08T10:51:09.312Z,9.50
2023-04-08T10:53:39.192Z,9.50
2023-04-08T10:56:09.310Z,9.50
2023-04-08T10:58:37.518Z,9.40
2023-04-08T11:01:07.641Z,9.40
2023-04-08T11:03:37.209Z,9.30
2023-04-08T11:06:07.549Z,9.30
2023-04-08T11:08:37.634Z,9.40
2023-04-08T11:11:09.192Z,9.50
2023-04-08T11:13:38.323Z,9.50
2023-04-08T11:16:17.800Z,9.50
2023-04-08T11:18:47.957Z,9.50
2023-04-08T11:21:17.931Z,9.50
2023-04-08T11:23:46.443Z,9.60
2023-04-08T11:26:16.325Z,9.60
2023-04-08T11:28:44.701Z,9.60
2023-04-08T11:31:13.430Z,9.70
2023-04-08T11:33:47.058Z,9.70
2023-04-08T11:36:15.496Z,9.70
2023-04-08T11:38:47.899Z,9.80
2023-04-08T11:41:16.880Z,9.80
2023-04-08T11:43:56.456Z,9.80
2023-04-08T11:46:25.396Z,9.90
2023-04-08T11:49:04.556Z,10.00
2023-04-08T11:51:34.185Z,10.10
2023-04-08T11:54:06.543Z,10.00
2023-04-08T11:56:46.835Z,10.00
2023-04-08T11:59:14.877Z,9.90
2023-04-08T12:01:43.112Z,9.90
2023-04-08T12:04:12.695Z,9.90
2023-04-08T12:06:43.561Z,9.90
2023-04-08T12:09:13.009Z,9.90
2023-04-08T12:11:41.274Z,9.90
2023-04-08T12:14:09.801Z,9.80
2023-04-08T12:16:38.035Z,9.80
2023-04-08T12:19:06.105Z,9.80
2023-04-08T12:21:34.598Z,9.90
2023-04-08T12:24:02.764Z,9.90
2023-04-08T12:26:32.134Z,9.90
2023-04-08T12:29:00.782Z,10.00
2023-04-08T12:31:28.883Z,10.00
2023-04-08T12:33:56.936Z,10.10
2023-04-08T12:36:25.074Z,10.00
2023-04-08T12:38:53.247Z,10.00
2023-04-08T12:41:21.764Z,10.00
2023-04-08T12:43:51.172Z,10.00
2023-04-08T12:46:19.255Z,9.90
2023-04-08T12:48:48.450Z,9.90
2023-04-08T12:51:17.340Z,9.90
2023-04-08T12:53:45.465Z,9.90
2023-04-08T12:56:13.542Z,9.80
2023-04-08T12:58:41.578Z,9.80
2023-04-08T13:01:12.475Z,9.80
2023-04-08T13:03:43.307Z,9.70
2023-04-08T13:06:12.419Z,9.70
2023-04-08T13:08:40.612Z,9.70
2023-04-08T13:11:09.451Z,9.70
2023-04-08T13:13:37.783Z,9.60
2023-04-08T13:16:06.034Z,9.60
2023-04-08T13:18:35.447Z,9.50
2023-04-08T13:21:03.439Z,9.50
2023-04-08T13:23:31.441Z,9.50
2023-04-08T13:25:59.515Z,9.50
2023-04-08T13:28:27.620Z,9.50
2023-04-08T13:30:55.842Z,9.50
2023-04-08T13:33:24.523Z,9.50
2023-04-08T13:35:53.944Z,9.40
2023-04-08T13:38:22.021Z,9.40
2023-04-08T13:40:50.194Z,9.40
2023-04-08T13:43:18.293Z,9.40
2023-04-08T13:45:46.480Z,9.40
2023-04-08T13:48:14.718Z,9.40
2023-04-08T13:50:43.768Z,9.40
2023-04-08T13:53:13.322Z,9.40
2023-04-08T13:55:41.683Z,9.30
2023-04-08T13:58:21.210Z,9.30
2023-04-08T14:00:52.524Z,9.20
2023-04-08T14:03:21.066Z,9.20
2023-04-08T14:05:50.857Z,9.10
2023-04-08T14:08:25.224Z,9.10
2023-04-08T14:10:53.658Z,9.10
2023-04-08T14:13:21.819Z,9.10
2023-04-08T14:15:49.966Z,9.00
2023-04-08T14:18:18.337Z,9.10
2023-04-08T14:20:46.548Z,9.10
2023-04-08T14:23:14.607Z,9.10
2023-04-08T14:25:44.006Z,9.10
2023-04-08T14:28:12.311Z,9.20
2023-04-08T14:30:40.339Z,9.20
2023-04-08T14:33:08.498Z,9.20
2023-04-08T14:35:36.730Z,9.30
2023-04-08T14:38:04.827Z,9.20
2023-04-08T14:40:32.820Z,9.30
2023-04-08T14:43:02.197Z,9.30
2023-04-08T14:45:30.352Z,9.30
2023-04-08T14:47:58.401Z,9.20
2023-04-08T14:50:26.964Z,9.20
2023-04-08T14:52:54.965Z,9.20
2023-04-08T14:55:23.213Z,9.10
2023-04-08T14:57:51.578Z,9.10
2023-04-08T15:00:21.148Z,9.00
2023-04-08T15:02:49.276Z,9.00
2023-04-08T15:05:17.376Z,8.90
2023-04-08T15:07:47.031Z,8.90
2023-04-08T15:10:15.149Z,8.90
2023-04-08T15:12:43.157Z,8.90
2023-04-08T15:15:11.632Z,8.90
2023-04-08T15:17:41.074Z,8.90
2023-04-08T15:20:11.023Z,8.90
2023-04-08T15:22:39.051Z,8.80
2023-04-08T15:25:07.880Z,8.90
2023-04-08T15:27:36.645Z,8.90
2023-04-08T15:30:05.057Z,8.90
2023-04-08T15:32:33.414Z,8.90
2023-04-08T15:35:03.106Z,8.90
2023-04-08T15:37:31.245Z,8.90
2023-04-08T15:39:59.675Z,8.80
2023-04-08T15:42:27.788Z,8.80
2023-04-08T15:44:56.041Z,8.80
2023-04-08T15:47:24.055Z,8.80
2023-04-08T15:49:55.755Z,8.90
2023-04-08T15:52:26.021Z,8.90
2023-04-08T15:54:54.046Z,8.90
2023-04-08T15:57:26.593Z,9.00
2023-04-08T15:59:54.938Z,9.00
2023-04-08T16:02:23.154Z,9.00
2023-04-08T16:04:51.305Z,9.10
2023-04-08T16:07:19.332Z,9.10
2023-04-08T16:09:48.741Z,9.10
2023-04-08T16:12:16.708Z,9.00
2023-04-08T16:14:44.706Z,9.00
2023-04-08T16:17:12.758Z,8.90
2023-04-08T16:19:40.896Z,8.90
2023-04-08T16:22:08.918Z,8.90
2023-04-08T16:24:37.462Z,8.90
2023-04-08T16:27:06.855Z,8.90
2023-04-08T16:29:34.847Z,8.90
2023-04-08T16:32:02.858Z,8.80
2023-04-08T16:34:30.898Z,8.80
2023-04-08T16:36:58.906Z,8.80
2023-04-08T16:39:26.902Z,8.80
2023-04-08T16:41:54.941Z,8.80
2023-04-08T16:44:24.267Z,8.80
2023-04-08T16:46:52.306Z,8.80
2023-04-08T16:49:20.315Z,8.80
2023-04-08T16:51:49.001Z,8.70
2023-04-08T16:54:16.999Z,8.70
2023-04-08T16:56:45.805Z,8.70
2023-04-08T16:59:14.207Z,8.70
2023-04-08T17:01:43.661Z,8.60
2023-04-08T17:04:11.741Z,8.70
2023-04-08T17:06:42.640Z,8.70
2023-04-08T17:09:11.548Z,8.70
2023-04-08T17:11:39.578Z,8.60
2023-04-08T17:14:07.595Z,8.60
2023-04-08T17:16:35.754Z,8.60
2023-04-08T17:19:05.581Z,8.60
2023-04-08T17:21:33.606Z,8.60
2023-04-08T17:24:01.628Z,8.60
2023-04-08T17:26:29.602Z,8.60
2023-04-08T17:28:57.618Z,8.60
2023-04-08T17:31:25.753Z,8.60
2023-04-08T17:33:53.736Z,8.60
2023-04-08T17:36:23.131Z,8.50
2023-04-08T17:38:51.814Z,8.50
2023-04-08T17:41:38.076Z,8.50
2023-04-08T17:44:07.791Z,8.50
2023-04-08T17:46:36.807Z,8.50
2023-04-08T17:49:04.793Z,8.50
2023-04-08T17:51:34.364Z,8.50
2023-04-08T17:54:02.344Z,8.50
2023-04-08T17:56:30.490Z,8.50
2023-04-08T17:58:58.515Z,8.40
2023-04-08T18:01:26.587Z,8.40
2023-04-08T18:03:54.977Z,8.40
2023-04-08T18:06:23.281Z,8.30
2023-04-08T18:08:52.716Z,8.30
2023-04-08T18:11:21.084Z,8.20
2023-04-08T18:13:49.362Z,8.20
2023-04-08T18:16:18.241Z,8.20
2023-04-08T18:18:46.894Z,8.10
2023-04-08T18:21:15.341Z,8.10
2023-04-08T18:23:43.340Z,8.10
2023-04-08T18:26:12.719Z,8.00
2023-04-08T18:28:40.802Z,8.00
2023-04-08T18:31:08.865Z,7.90
2023-04-08T18:33:38.881Z,7.90
2023-04-08T18:36:08.910Z,7.80
2023-04-08T18:38:37.339Z,7.80
2023-04-08T18:41:05.811Z,7.80
2023-04-08T18:43:35.614Z,7.80
2023-04-08T18:46:04.705Z,7.70
2023-04-08T18:48:33.235Z,7.70
2023-04-08T18:51:01.925Z,7.70
2023-04-08T18:53:30.662Z,7.70
2023-04-08T18:55:58.746Z,7.60
2023-04-08T18:58:27.193Z,7.60
2023-04-08T19:00:56.568Z,7.60
2023-04-08T19:03:27.100Z,7.50
2023-04-08T19:05:55.453Z,7.50
2023-04-08T19:08:23.461Z,7.50
2023-04-08T19:10:51.537Z,7.40
2023-04-08T19:13:19.511Z,7.30
2023-04-08T19:15:47.546Z,7.30
2023-04-08T19:18:16.930Z,7.20
2023-04-08T19:20:45.572Z,7.20
2023-04-08T19:23:13.551Z,7.20
2023-04-08T19:25:41.532Z,7.10
2023-04-08T19:28:09.588Z,7.00
2023-04-08T19:30:38.672Z,7.00
2023-04-08T19:33:07.864Z,7.00
2023-04-08T19:35:37.568Z,7.00
2023-04-08T19:38:05.718Z,7.00
2023-04-08T19:40:33.688Z,7.00
2023-04-08T19:43:01.745Z,7.00
2023-04-08T19:45:29.707Z,7.00
2023-04-08T19:47:58.126Z,7.00
2023-04-08T19:50:26.155Z,6.90
2023-04-08T19:52:55.596Z,6.80
2023-04-08T19:55:23.836Z,6.80
2023-04-08T19:57:52.771Z,6.80
2023-04-08T20:00:20.987Z,6.70
2023-04-08T20:02:49.378Z,6.70
2023-04-08T20:05:17.712Z,6.70
2023-04-08T20:07:45.762Z,6.60
2023-04-08T20:10:15.999Z,6.60
2023-04-08T20:12:43.991Z,6.60
2023-04-08T20:15:23.531Z,6.60
2023-04-08T20:17:53.109Z,6.50
2023-04-08T20:20:21.511Z,6.50
2023-04-08T20:22:49.530Z,6.50
2023-04-08T20:25:19.108Z,6.40
2023-04-08T20:27:47.134Z,6.40
2023-04-08T20:30:15.146Z,6.30
2023-04-08T20:32:43.219Z,6.40
2023-04-08T20:35:11.824Z,6.30
2023-04-08T20:37:39.855Z,6.40
2023-04-08T20:40:09.266Z,6.30
2023-04-08T20:42:38.702Z,6.20
2023-04-08T20:45:07.783Z,6.30
2023-04-08T20:47:35.857Z,6.20
2023-04-08T20:50:04.866Z,6.20
2023-04-08T20:52:33.066Z,6.20
2023-04-08T20:55:01.313Z,6.10
2023-04-08T20:57:29.323Z,6.10
2023-04-08T20:59:58.764Z,6.10
2023-04-08T21:02:27.463Z,6.10
2023-04-08T21:04:55.734Z,6.10
2023-04-08T21:07:26.003Z,6.00
2023-04-08T21:09:53.983Z,5.80
2023-04-08T21:12:22.041Z,5.80
2023-04-08T21:14:50.860Z,5.80
2023-04-08T21:17:20.317Z,5.80
2023-04-08T21:19:48.422Z,5.80
2023-04-08T21:22:17.669Z,5.80
2023-04-08T21:24:45.666Z,5.80
2023-04-08T21:27:13.690Z,5.80
2023-04-08T21:29:41.666Z,5.80
2023-04-08T21:32:09.831Z,5.80
2023-04-08T21:34:39.346Z,5.80
2023-04-08T21:37:07.462Z,5.70
2023-04-08T21:39:38.267Z,5.70
2023-04-08T21:42:06.392Z,5.70
2023-04-08T21:44:34.584Z,5.70
2023-04-08T21:47:02.617Z,5.60
2023-04-08T21:49:30.744Z,5.50
2023-04-08T21:52:00.142Z,5.60
2023-04-08T21:54:28.173Z,5.50
2023-04-08T21:56:56.689Z,5.50
2023-04-08T21:59:24.848Z,5.50
2023-04-08T22:01:52.799Z,5.50
2023-04-08T22:04:21.209Z,5.50
2023-04-08T22:06:49.857Z,5.50
2023-04-08T22:09:19.502Z,5.50
2023-04-08T22:11:47.612Z,5.50
2023-04-08T22:14:17.627Z,5.50
2023-04-08T22:16:45.925Z,5.50
2023-04-08T22:19:14.099Z,5.40
2023-04-08T22:21:42.273Z,5.40
2023-04-08T22:24:10.481Z,5.40
2023-04-08T22:26:40.106Z,5.30
2023-04-08T22:29:08.202Z,5.30
2023-04-08T22:31:36.257Z,5.30
2023-04-08T22:34:04.428Z,5.20
2023-04-08T22:36:32.464Z,5.20
2023-04-08T22:39:00.526Z,5.20
2023-04-08T22:41:28.788Z,5.20
2023-04-08T22:43:58.272Z,5.20
2023-04-08T22:46:26.609Z,5.20
2023-04-08T22:48:54.845Z,5.20
2023-04-08T22:51:23.557Z,5.10
2023-04-08T22:53:51.677Z,5.10
2023-04-08T22:56:19.719Z,5.10
2023-04-08T22:58:47.765Z,5.10
2023-04-08T23:01:20.765Z,5.10
2023-04-08T23:03:48.938Z,5.00
2023-04-08T23:06:17.009Z,5.00
2023-04-08T23:08:45.028Z,5.00
2023-04-08T23:11:13.028Z,5.00
2023-04-08T23:13:41.234Z,4.90
2023-04-08T23:16:09.915Z,4.90
2023-04-08T23:18:39.410Z,4.90
2023-04-08T23:21:07.625Z,4.90
2023-04-08T23:23:35.660Z,4.90
2023-04-08T23:26:03.694Z,4.80
2023-04-08T23:28:31.723Z,4.90
2023-04-08T23:31:00.306Z,4.80
2023-04-08T23:33:28.339Z,4.70
2023-04-08T23:35:57.802Z,4.70
2023-04-08T23:38:25.966Z,4.70
2023-04-08T23:40:54.149Z,4.60
2023-04-08T23:43:22.203Z,4.60
2023-04-08T23:45:50.284Z,4.70
2023-04-08T23:48:18.268Z,4.70
2023-04-08T23:50:46.276Z,4.60
2023-04-08T23:53:15.701Z,4.60
2023-04-08T23:55:43.732Z,4.60
2023-04-08T23:58:11.760Z,4.60
